Terminal Aerodrome Forecast
Issued by NWS

Current Version | Previous Version | Text Only | Print | Product List | Glossary On
Versions: 1 2 3 4 5 6 7 8 9 10 11 12 13 14 15 16 17 18 19 20 21 22 23 24 25 26 27 28 29 30 31 32 33 34 35 36 37 38 39 40
000
FTUS43 KGRB 202334
TAFRHI
TAF
KRHI 202334Z 2100/2124 28007KT P6SM SKC
     FM210100 VRB02KT P6SM SKC
     FM210700 VRB03KT 2SM BR SCT250
      TEMPO 2108/2112 1/2SM FG BKN002
     FM211300 17006KT P6SM SCT015
     FM211800 16009KT P6SM FEW040 SCT150 PROB30 2120/2124 3SM -TSRA
      BKN040CB=

USA.gov is the U.S. government's official web portal to all federal, state and local government web resources and services.